HVK weather

Hólmavík Airport
Hólmavík, Westfjords, Iceland

Public forecast

Using degrees Celsius for public forecast. Weather courtesy of forecast.io.

METAR (pilot weather report)

Report is more than 6 hours old.

Closest report is Ísafjörður Airport, 41.2 nm (76.3 km) WNW. Retrieved 2018/12/14 14:50 UTC (9 hours ago):

BIIS 141450Z 00000KT 9999 FEW030 02/M01 Q0993

TAF (pilot weather forecast)

Closest forecast is Akureyri Airport, 89.6 nm (166.0 km) E. Retrieved 2018/12/14 21:32 UTC (3 hours ago):

TAF BIAR 141928Z 1421/1521 16005KT 9999 FEW030 TX02/1513Z TNM02/1500Z PROB40 TEMPO 1502/1506 17015G25KT